createdAt,value
2023-05-15T00:02:02.563Z,11.10
2023-05-15T00:07:05.342Z,9.88
2023-05-15T00:12:08.200Z,10.77
2023-05-15T00:17:11.001Z,10.95
2023-05-15T00:22:13.717Z,10.73
2023-05-15T00:27:16.310Z,10.45
2023-05-15T00:32:18.866Z,12.52
2023-05-15T00:37:21.543Z,10.32
2023-05-15T00:42:24.467Z,12.35
2023-05-15T00:47:27.734Z,9.93
2023-05-15T00:52:30.566Z,9.77
2023-05-15T00:57:34.598Z,11.23
2023-05-15T01:02:37.712Z,10.27
2023-05-15T01:08:15.323Z,12.38
2023-05-15T01:13:21.252Z,10.88
2023-05-15T01:18:24.096Z,10.52
2023-05-15T01:23:58.124Z,9.80
2023-05-15T01:29:41.567Z,12.43
2023-05-15T01:35:01.021Z,12.23
2023-05-15T01:40:06.025Z,10.68
2023-05-15T01:45:11.942Z,11.85
2023-05-15T01:50:17.551Z,10.23
2023-05-15T01:55:21.761Z,10.10
2023-05-15T02:00:25.018Z,13.77
2023-05-15T02:05:27.959Z,10.63
2023-05-15T02:10:32.365Z,9.93
2023-05-15T02:15:35.838Z,12.35
2023-05-15T02:20:38.587Z,10.05
2023-05-15T02:25:53.779Z,10.30
2023-05-15T02:31:05.866Z,10.98
2023-05-15T02:36:10.122Z,10.30
2023-05-15T02:41:12.826Z,10.20
2023-05-15T02:46:15.794Z,10.30
2023-05-15T02:51:18.500Z,9.98
2023-05-15T02:56:22.378Z,13.60
2023-05-15T03:01:25.112Z,13.57
2023-05-15T03:06:27.955Z,13.05
2023-05-15T03:11:31.886Z,16.77
2023-05-15T03:16:36.996Z,16.63
2023-05-15T03:21:41.055Z,18.08
2023-05-15T03:26:45.245Z,15.95
2023-05-15T03:31:48.201Z,13.80
2023-05-15T03:36:51.191Z,14.10
2023-05-15T03:41:53.922Z,13.73
2023-05-15T03:46:58.520Z,11.93
2023-05-15T03:52:01.442Z,12.45
2023-05-15T03:57:04.855Z,14.57
2023-05-15T04:02:07.650Z,14.07
2023-05-15T04:07:10.350Z,18.20
2023-05-15T04:12:13.041Z,17.13
2023-05-15T04:17:15.621Z,17.75
2023-05-15T04:22:18.513Z,23.55
2023-05-15T04:27:21.388Z,25.92
2023-05-15T04:32:24.091Z,27.10
2023-05-15T04:37:30.080Z,29.58
2023-05-15T04:42:32.717Z,23.50
2023-05-15T04:47:36.808Z,29.05
2023-05-15T04:52:43.281Z,31.05
2023-05-15T04:57:48.712Z,30.40
2023-05-15T05:02:51.758Z,31.27
2023-05-15T05:07:54.538Z,30.05
2023-05-15T05:12:57.229Z,31.27
2023-05-15T05:18:02.569Z,32.80
2023-05-15T05:23:05.446Z,25.98
2023-05-15T05:28:07.976Z,28.60
2023-05-15T05:33:10.800Z,27.95
2023-05-15T05:38:13.803Z,28.85
2023-05-15T05:43:16.494Z,28.77
2023-05-15T05:48:19.344Z,24.98
2023-05-15T05:53:21.952Z,22.90
2023-05-15T05:58:25.974Z,27.17
2023-05-15T06:03:29.154Z,25.33
2023-05-15T06:08:34.346Z,27.38
2023-05-15T06:13:37.735Z,26.83
2023-05-15T06:18:40.576Z,27.38
2023-05-15T06:23:43.468Z,27.77
2023-05-15T06:28:46.357Z,25.98
2023-05-15T06:33:49.607Z,22.25
2023-05-15T06:38:52.252Z,23.13
2023-05-15T06:43:55.381Z,21.85
2023-05-15T06:48:58.015Z,15.95
2023-05-15T06:54:00.717Z,18.83
2023-05-15T06:59:03.330Z,18.38
2023-05-15T07:04:06.481Z,17.08
2023-05-15T07:09:09.594Z,16.48
2023-05-15T07:14:14.639Z,15.57
2023-05-15T07:19:22.801Z,15.10
2023-05-15T07:24:25.689Z,13.57
2023-05-15T07:29:28.471Z,15.30
2023-05-15T07:34:36.621Z,13.77
2023-05-15T07:39:39.653Z,14.50
2023-05-15T07:44:44.639Z,15.30
2023-05-15T07:49:48.159Z,12.40
2023-05-15T07:54:51.223Z,14.48
2023-05-15T07:59:54.064Z,15.93
2023-05-15T08:04:56.733Z,17.05
2023-05-15T08:09:59.518Z,14.77
2023-05-15T08:15:03.464Z,21.08
2023-05-15T08:25:09.335Z,20.67
2023-05-15T08:30:12.606Z,18.10
2023-05-15T08:35:15.491Z,16.33
2023-05-15T08:40:25.663Z,20.47
2023-05-15T08:45:37.556Z,21.73
2023-05-15T08:50:42.006Z,21.33
2023-05-15T08:55:44.828Z,18.67
2023-05-15T09:00:47.824Z,17.27
2023-05-15T09:05:53.291Z,17.95
2023-05-15T09:10:56.933Z,16.13
2023-05-15T09:16:00.036Z,15.77
2023-05-15T09:21:31.615Z,13.55
2023-05-15T09:26:34.177Z,13.85
2023-05-15T09:31:37.030Z,13.47
2023-05-15T09:36:44.371Z,14.13
2023-05-15T09:41:47.126Z,13.95
2023-05-15T09:46:51.163Z,12.23
2023-05-15T09:51:55.229Z,14.00
2023-05-15T09:57:11.570Z,16.88
2023-05-15T10:02:32.684Z,13.95
2023-05-15T10:07:36.440Z,16.33
2023-05-15T10:12:39.133Z,12.95
2023-05-15T10:17:42.813Z,15.00
2023-05-15T10:22:51.635Z,18.23
2023-05-15T10:27:54.677Z,16.52
2023-05-15T10:32:58.217Z,16.42
2023-05-15T10:38:04.117Z,13.35
2023-05-15T10:43:06.970Z,17.92
2023-05-15T10:48:12.445Z,17.27
2023-05-15T10:53:16.249Z,14.48
2023-05-15T10:58:25.167Z,18.73
2023-05-15T11:03:48.855Z,17.02
2023-05-15T11:08:52.973Z,18.17
2023-05-15T11:14:08.044Z,21.38
2023-05-15T11:19:35.257Z,19.40
2023-05-15T11:25:06.015Z,23.02
2023-05-15T11:30:25.324Z,23.15
2023-05-15T11:35:28.324Z,22.17
2023-05-15T11:40:43.537Z,21.77
2023-05-15T11:45:49.038Z,21.88
2023-05-15T11:50:55.227Z,19.60
2023-05-15T11:55:58.076Z,21.10
2023-05-15T12:01:00.965Z,19.30
2023-05-15T12:06:04.156Z,19.70
2023-05-15T12:11:06.914Z,20.85
2023-05-15T12:16:09.561Z,18.80
2023-05-15T12:21:12.289Z,23.70
2023-05-15T12:26:15.019Z,23.23
2023-05-15T12:31:18.018Z,28.73
2023-05-15T12:36:21.444Z,25.70
2023-05-15T12:41:29.294Z,21.23
2023-05-15T12:46:32.444Z,28.00
2023-05-15T12:51:43.181Z,26.13
2023-05-15T12:56:47.238Z,28.38
2023-05-15T13:01:50.906Z,24.30
2023-05-15T13:06:54.601Z,23.30
2023-05-15T13:17:05.192Z,25.52
2023-05-15T13:22:10.159Z,23.67
2023-05-15T13:27:20.453Z,24.50
2023-05-15T13:32:36.658Z,22.88
2023-05-15T13:37:39.564Z,20.90
2023-05-15T13:42:43.410Z,15.63
2023-05-15T13:47:46.193Z,14.50
2023-05-15T13:52:49.283Z,16.97
2023-05-15T13:57:58.355Z,14.35
2023-05-15T14:03:04.290Z,14.00
2023-05-15T14:08:09.434Z,11.63
2023-05-15T14:13:12.345Z,10.85
2023-05-15T14:18:15.242Z,9.23
2023-05-15T14:23:23.748Z,9.55
2023-05-15T14:28:26.376Z,9.07
2023-05-15T14:33:32.915Z,8.60
2023-05-15T14:38:37.726Z,10.98
2023-05-15T14:43:44.944Z,10.60
2023-05-15T14:48:51.144Z,9.65
2023-05-15T14:53:54.755Z,9.15
2023-05-15T14:58:57.516Z,9.27
2023-05-15T15:04:00.772Z,7.97
2023-05-15T15:09:03.972Z,8.18
2023-05-15T15:14:14.754Z,7.35
2023-05-15T15:19:19.944Z,7.00
2023-05-15T15:24:23.191Z,7.28
2023-05-15T15:29:25.756Z,6.47
2023-05-15T15:34:28.468Z,5.50
2023-05-15T15:39:30.991Z,5.43
2023-05-15T15:44:34.301Z,5.57
2023-05-15T15:49:37.159Z,5.00
2023-05-15T15:54:47.228Z,5.47
2023-05-15T15:59:51.613Z,4.93
2023-05-15T16:04:54.537Z,5.18
2023-05-15T16:10:10.876Z,4.80
2023-05-15T16:15:23.470Z,4.72
2023-05-15T16:20:26.976Z,4.47
2023-05-15T16:25:29.774Z,4.78
2023-05-15T16:30:47.156Z,4.75
2023-05-15T16:35:54.660Z,4.70
2023-05-15T16:40:57.366Z,4.38
2023-05-15T16:46:02.695Z,4.38
2023-05-15T16:51:05.624Z,5.25
2023-05-15T16:56:08.441Z,5.10
2023-05-15T17:01:11.071Z,5.50
2023-05-15T17:06:13.795Z,4.90
2023-05-15T17:11:16.417Z,5.00
2023-05-15T17:16:19.199Z,5.07
2023-05-15T17:21:21.904Z,5.32
2023-05-15T17:26:24.780Z,4.70
2023-05-15T17:31:29.219Z,5.47
2023-05-15T17:36:32.403Z,4.53
2023-05-15T17:41:35.092Z,4.40
2023-05-15T17:46:37.939Z,4.30
2023-05-15T17:51:40.677Z,4.70
2023-05-15T17:56:43.533Z,4.55
2023-05-15T18:01:46.743Z,4.57
2023-05-15T18:06:49.793Z,5.33
2023-05-15T18:11:52.688Z,3.92
2023-05-15T18:16:55.641Z,4.45
2023-05-15T18:22:01.242Z,4.03
2023-05-15T18:27:04.534Z,4.30
2023-05-15T18:32:08.220Z,4.43
2023-05-15T18:37:10.955Z,3.83
2023-05-15T18:42:13.941Z,4.03
2023-05-15T18:47:16.812Z,4.13
2023-05-15T18:52:20.123Z,3.90
2023-05-15T18:57:22.833Z,3.50
2023-05-15T19:02:27.399Z,3.67
2023-05-15T19:07:30.714Z,3.85
2023-05-15T19:12:33.350Z,2.88
2023-05-15T19:17:38.128Z,2.97
2023-05-15T19:22:40.859Z,3.60
2023-05-15T19:27:43.666Z,3.50
2023-05-15T19:32:46.386Z,2.92
2023-05-15T19:37:49.046Z,3.35
2023-05-15T19:42:51.739Z,2.70
2023-05-15T19:47:54.448Z,2.90
2023-05-15T19:52:58.445Z,3.28
2023-05-15T19:58:01.299Z,2.97
2023-05-15T20:03:04.143Z,2.75
2023-05-15T20:08:09.885Z,2.15
2023-05-15T20:13:12.681Z,2.03
2023-05-15T20:18:17.692Z,2.17
2023-05-15T20:23:20.723Z,1.92
2023-05-15T20:28:25.407Z,1.63
2023-05-15T20:33:28.156Z,1.90
2023-05-15T20:38:30.933Z,1.80
2023-05-15T20:43:33.539Z,2.08
2023-05-15T20:48:36.555Z,2.13
2023-05-15T20:53:40.242Z,2.78
2023-05-15T20:58:44.340Z,2.13
2023-05-15T21:03:47.152Z,2.40
2023-05-15T21:08:50.110Z,2.20
2023-05-15T21:13:53.022Z,2.60
2023-05-15T21:18:55.864Z,2.58
2023-05-15T21:24:01.908Z,2.78
2023-05-15T21:29:09.306Z,2.63
2023-05-15T21:34:13.170Z,2.80
2023-05-15T21:39:16.155Z,2.67
2023-05-15T21:44:18.722Z,2.70
2023-05-15T21:49:21.346Z,2.97
2023-05-15T21:54:23.941Z,2.90
2023-05-15T21:59:28.716Z,3.33
2023-05-15T22:04:31.362Z,3.42
2023-05-15T22:09:34.167Z,2.42
2023-05-15T22:14:39.520Z,2.95
2023-05-15T22:19:45.831Z,3.13
2023-05-15T22:24:48.465Z,3.03
2023-05-15T22:29:51.175Z,3.97
2023-05-15T22:34:53.918Z,3.75
2023-05-15T22:39:57.641Z,3.50
2023-05-15T22:45:00.203Z,3.10
2023-05-15T22:50:02.909Z,3.10
2023-05-15T22:55:07.142Z,3.42
2023-05-15T23:00:10.693Z,3.60
2023-05-15T23:05:13.722Z,3.55
2023-05-15T23:10:16.321Z,3.65
2023-05-15T23:15:19.067Z,4.43
2023-05-15T23:20:21.969Z,3.53
2023-05-15T23:25:24.682Z,3.42
2023-05-15T23:30:27.654Z,3.15
2023-05-15T23:35:31.885Z,3.17
2023-05-15T23:40:34.655Z,3.58
2023-05-15T23:45:37.755Z,2.70
2023-05-15T23:50:41.611Z,2.75
2023-05-15T23:55:44.194Z,3.20
